Time;durP1;ratioP1;P1;durP2;ratioP2;P2;SDS_P1;SDS_P2;PMS_P1;PMS_P2;Temp;Humidity;BMP_temperature;BMP_pressure;BME280_temperature;BME280_humidity;BME280_pressure;Samples;Min_cycle;Max_cycle;Signal;HPM_P1;HPM_P2
2022/01/19 00:01:34;;;;;;;133.38;46.17;;;;;;;;;;5016176;28;20026;-50
2022/01/19 00:04:00;;;;;;;131.25;45.63;;;;;;;;;;4998554;28;20492;-50
2022/01/19 00:06:28;;;;;;;136.18;44.55;;;;;;;;;;5016096;28;20501;-50
2022/01/19 00:08:53;;;;;;;131.30;46.30;;;;;;;;;;5015347;28;20054;-47
2022/01/19 00:11:19;;;;;;;127.15;46.28;;;;;;;;;;5016060;28;20523;-48
2022/01/19 00:13:44;;;;;;;121.95;43.47;;;;;;;;;;5015835;28;20503;-48
2022/01/19 00:16:10;;;;;;;118.35;44.72;;;;;;;;;;5015851;28;20022;-49
2022/01/19 00:18:35;;;;;;;127.75;44.92;;;;;;;;;;4998270;28;20018;-48
2022/01/19 00:21:01;;;;;;;134.48;44.75;;;;;;;;;;5015786;28;20480;-47
2022/01/19 00:23:26;;;;;;;120.68;44.25;;;;;;;;;;5015927;28;20022;-47
2022/01/19 00:25:58;;;;;;;125.63;44.38;;;;;;;;;;5015670;28;20064;-48
2022/01/19 00:28:29;;;;;;;123.72;44.63;;;;;;;;;;5015657;28;20049;-49
2022/01/19 00:30:54;;;;;;;116.45;43.65;;;;;;;;;;5015681;28;20021;-49
2022/01/19 00:33:19;;;;;;;113.80;41.03;;;;;;;;;;5015495;28;20076;-48
2022/01/19 00:35:45;;;;;;;129.73;44.80;;;;;;;;;;5015504;28;20469;-50
2022/01/19 00:38:10;;;;;;;129.98;44.42;;;;;;;;;;5015334;28;20457;-47
2022/01/19 00:40:39;;;;;;;125.43;44.13;;;;;;;;;;5015431;28;20014;-49
2022/01/19 00:43:04;;;;;;;121.18;43.40;;;;;;;;;;5015388;28;20350;-47
2022/01/19 00:45:30;;;;;;;114.53;42.72;;;;;;;;;;5015401;28;20021;-50
2022/01/19 00:47:55;;;;;;;131.25;42.63;;;;;;;;;;5015209;28;20401;-48
2022/01/19 00:50:23;;;;;;;121.32;43.35;;;;;;;;;;5015147;28;20505;-49
2022/01/19 00:52:51;;;;;;;108.72;41.53;;;;;;;;;;5015225;28;20037;-47
2022/01/19 00:55:19;;;;;;;106.93;41.50;;;;;;;;;;5015061;28;20432;-48
2022/01/19 00:57:44;;;;;;;107.65;42.33;;;;;;;;;;5015018;28;20025;-50
2022/01/19 01:00:12;;;;;;;115.03;43.35;;;;;;;;;;4997553;28;20053;-48
2022/01/19 01:02:37;;;;;;;105.50;39.92;;;;;;;;;;5014823;28;20535;-48
2022/01/19 01:05:06;;;;;;;115.72;40.72;;;;;;;;;;5014832;28;20021;-47
2022/01/19 01:07:33;;;;;;;117.40;42.13;;;;;;;;;;5014906;28;20096;-48
2022/01/19 01:09:58;;;;;;;128.63;45.05;;;;;;;;;;5014192;28;20441;-49
2022/01/19 01:12:42;;;;;;;126.20;49.97;;;;;;;;;;5014827;28;20018;-50
2022/01/19 01:15:27;;;;;;;120.65;44.92;;;;;;;;;;5014846;28;20033;-50
2022/01/19 01:20:34;;;;;;;122.38;42.85;;;;;;;;;;5014166;28;20030;-49
2022/01/19 01:22:59;;;;;;;115.30;44.35;;;;;;;;;;5014716;28;20040;-47
2022/01/19 01:25:25;;;;;;;122.38;42.97;;;;;;;;;;5016156;28;20478;-50
2022/01/19 01:27:50;;;;;;;112.32;42.33;;;;;;;;;;5014619;28;20461;-48
2022/01/19 01:30:19;;;;;;;135.45;44.97;;;;;;;;;;5014583;28;20029;-47
2022/01/19 01:32:48;;;;;;;134.43;47.33;;;;;;;;;;5014635;28;20428;-47
2022/01/19 01:35:13;;;;;;;126.82;49.30;;;;;;;;;;5014524;28;20362;-47
2022/01/19 01:37:41;;;;;;;126.45;43.97;;;;;;;;;;5014323;28;20069;-47
2022/01/19 01:40:08;;;;;;;126.60;45.42;;;;;;;;;;5014293;28;20374;-48
2022/01/19 01:42:34;;;;;;;120.32;44.25;;;;;;;;;;5014332;28;20025;-48
2022/01/19 01:45:01;;;;;;;117.90;44.10;;;;;;;;;;5014308;28;20017;-48
2022/01/19 01:47:27;;;;;;;120.13;44.22;;;;;;;;;;4996748;28;20390;-47
2022/01/19 01:55:10;;;;;;;113.40;42.83;;;;;;;;;;5014656;28;20025;-48
2022/01/19 01:57:38;;;;;;;111.07;43.25;;;;;;;;;;4996398;28;20010;-48
2022/01/19 02:00:05;;;;;;;118.10;43.00;;;;;;;;;;5014231;28;20020;-47
2022/01/19 02:02:30;;;;;;;114.70;42.42;;;;;;;;;;5014124;28;20084;-48
2022/01/19 02:04:58;;;;;;;127.93;43.08;;;;;;;;;;5014269;28;20457;-48
2022/01/19 02:09:58;;;;;;;114.13;41.15;;;;;;;;;;5013885;28;20038;-50
2022/01/19 02:23:37;;;;;;;117.18;42.42;;;;;;;;;;5014343;28;20100;-47
2022/01/19 02:26:07;;;;;;;108.47;41.58;;;;;;;;;;5014078;28;20022;-47
2022/01/19 02:40:10;;;;;;;;;;;;;;;;;;;;;
2022/01/19 02:42:02;;;;;;;171.23;31.73;;;;;;;;;;5017957;28;20029;-47
2022/01/19 02:44:39;;;;;;;228.18;33.40;;;;;;;;;;5017646;28;20014;-48
2022/01/19 02:49:41;;;;;;;143.52;30.67;;;;;;;;;;5017510;28;20030;-47
2022/01/19 02:52:07;;;;;;;278.30;36.33;;;;;;;;;;5017460;28;20028;-47
2022/01/19 02:54:33;;;;;;;232.95;37.83;;;;;;;;;;5017405;28;20040;-47
2022/01/19 02:57:01;;;;;;;157.30;37.63;;;;;;;;;;5017520;28;20026;-47
2022/01/19 03:10:29;;;;;;;169.32;33.50;;;;;;;;;;5016914;28;20139;-50
2022/01/19 03:12:57;;;;;;;154.45;33.85;;;;;;;;;;5017052;28;20029;-50
2022/01/19 03:15:22;;;;;;;117.03;32.45;;;;;;;;;;5016983;28;20029;-47
2022/01/19 03:17:50;;;;;;;119.47;29.55;;;;;;;;;;5016938;28;20014;-50
2022/01/19 03:20:21;;;;;;;132.93;31.52;;;;;;;;;;5016957;28;20098;-47
2022/01/19 03:23:01;;;;;;;150.30;34.40;;;;;;;;;;5016979;28;20448;-47
2022/01/19 03:25:27;;;;;;;141.55;34.35;;;;;;;;;;5016825;28;20010;-48
2022/01/19 03:27:52;;;;;;;111.40;34.78;;;;;;;;;;5016822;28;20112;-47
2022/01/19 03:30:18;;;;;;;105.50;35.17;;;;;;;;;;5016704;28;20092;-48
2022/01/19 03:32:47;;;;;;;87.70;30.15;;;;;;;;;;5016736;28;20385;-47
2022/01/19 03:35:12;;;;;;;83.18;30.60;;;;;;;;;;5016603;28;20022;-46
2022/01/19 03:37:38;;;;;;;116.38;31.40;;;;;;;;;;5016484;28;20032;-47
2022/01/19 03:40:07;;;;;;;199.45;36.28;;;;;;;;;;5016613;28;20028;-47
2022/01/19 03:42:32;;;;;;;123.18;33.92;;;;;;;;;;5016501;28;20017;-47
2022/01/19 03:45:02;;;;;;;74.10;31.63;;;;;;;;;;5015550;28;20033;-47
2022/01/19 03:47:28;;;;;;;90.85;32.88;;;;;;;;;;5016495;28;20104;-47
2022/01/19 03:49:53;;;;;;;73.53;31.58;;;;;;;;;;5016494;28;20057;-47
2022/01/19 03:52:23;;;;;;;140.70;35.40;;;;;;;;;;5016295;28;20033;-48
2022/01/19 03:54:48;;;;;;;90.20;32.92;;;;;;;;;;5016318;28;20072;-50
2022/01/19 03:57:15;;;;;;;120.70;36.35;;;;;;;;;;5016322;28;20380;-47
2022/01/19 03:59:40;;;;;;;129.38;36.95;;;;;;;;;;5016098;28;20049;-47
2022/01/19 04:02:06;;;;;;;101.35;35.60;;;;;;;;;;5017414;28;20535;-46
2022/01/19 04:04:43;;;;;;;86.32;33.97;;;;;;;;;;5016233;28;20033;-47
2022/01/19 04:07:09;;;;;;;95.85;36.08;;;;;;;;;;5016215;28;20018;-47
2022/01/19 04:09:42;;;;;;;119.47;38.17;;;;;;;;;;5015863;28;20120;-47
2022/01/19 04:12:09;;;;;;;98.75;38.58;;;;;;;;;;4998392;28;20018;-47
2022/01/19 04:14:34;;;;;;;102.75;39.00;;;;;;;;;;5016050;28;20037;-47
2022/01/19 04:17:07;;;;;;;96.30;38.13;;;;;;;;;;5015935;28;20026;-46
2022/01/19 04:19:47;;;;;;;90.22;36.88;;;;;;;;;;4998237;28;20026;-47
2022/01/19 04:22:14;;;;;;;103.47;39.65;;;;;;;;;;5015813;28;20018;-47
2022/01/19 04:24:40;;;;;;;109.53;41.15;;;;;;;;;;5014511;28;20026;-47
2022/01/19 04:29:52;;;;;;;110.05;43.92;;;;;;;;;;5015612;28;20030;-47
2022/01/19 04:32:22;;;;;;;100.68;40.78;;;;;;;;;;5015597;28;20022;-47
2022/01/19 04:34:49;;;;;;;107.45;43.55;;;;;;;;;;5015686;28;20045;-47
2022/01/19 05:06:27;;;;;;;90.97;39.72;;;;;;;;;;5015199;28;20068;-50
2022/01/19 05:09:06;;;;;;;89.50;40.70;;;;;;;;;;5014843;28;20029;-48
2022/01/19 05:14:15;;;;;;;98.80;42.03;;;;;;;;;;5015067;28;20036;-47
2022/01/19 05:16:40;;;;;;;94.32;43.50;;;;;;;;;;5014760;28;20026;-48
2022/01/19 05:19:06;;;;;;;93.88;41.55;;;;;;;;;;4997078;28;20022;-47
2022/01/19 05:21:31;;;;;;;87.03;40.95;;;;;;;;;;5014832;28;20150;-47
2022/01/19 05:23:56;;;;;;;92.95;41.80;;;;;;;;;;5014672;28;20022;-47
2022/01/19 05:26:21;;;;;;;86.78;41.05;;;;;;;;;;4997040;28;20025;-48
2022/01/19 05:28:47;;;;;;;90.70;42.13;;;;;;;;;;4997111;28;20053;-47
2022/01/19 05:31:12;;;;;;;89.85;41.88;;;;;;;;;;5014585;28;20025;-47
2022/01/19 05:33:38;;;;;;;89.30;39.13;;;;;;;;;;5014578;28;20426;-48
2022/01/19 05:36:03;;;;;;;93.18;42.90;;;;;;;;;;4996808;28;20030;-47
2022/01/19 05:38:29;;;;;;;91.97;40.53;;;;;;;;;;5014481;28;20014;-47
2022/01/19 05:40:54;;;;;;;91.43;43.17;;;;;;;;;;5014475;28;20033;-49
2022/01/19 05:43:20;;;;;;;86.20;40.78;;;;;;;;;;5014518;28;20450;-48
2022/01/19 05:45:48;;;;;;;92.45;40.65;;;;;;;;;;5014478;28;20029;-46
2022/01/19 05:48:13;;;;;;;99.78;44.78;;;;;;;;;;4996997;28;20034;-47
2022/01/19 05:50:38;;;;;;;99.72;41.95;;;;;;;;;;5014356;28;20029;-47
2022/01/19 05:53:04;;;;;;;89.53;40.55;;;;;;;;;;5014352;28;20022;-48
2022/01/19 05:55:29;;;;;;;85.75;41.38;;;;;;;;;;5014396;28;20406;-47
2022/01/19 05:57:55;;;;;;;92.03;41.63;;;;;;;;;;5014160;28;20102;-47
2022/01/19 06:00:20;;;;;;;90.85;40.60;;;;;;;;;;5014344;28;20044;-47
2022/01/19 06:02:45;;;;;;;94.10;42.50;;;;;;;;;;5014146;28;20025;-48
2022/01/19 06:05:10;;;;;;;96.22;41.15;;;;;;;;;;5014136;28;20432;-47
2022/01/19 06:07:45;;;;;;;91.63;40.22;;;;;;;;;;4998552;28;20121;-47
2022/01/19 06:10:42;;;;;;;90.55;38.92;;;;;;;;;;5018100;28;20046;-47
2022/01/19 06:12:56;;;;;;;82.72;37.90;;;;;;;;;;5018090;28;20030;-47
2022/01/19 06:15:22;;;;;;;81.47;37.90;;;;;;;;;;5018130;28;20075;-48
2022/01/19 06:17:47;;;;;;;90.28;42.47;;;;;;;;;;5017991;28;20022;-48
2022/01/19 06:20:12;;;;;;;79.95;39.05;;;;;;;;;;5017767;28;20063;-50
2022/01/19 06:22:37;;;;;;;82.70;39.10;;;;;;;;;;5018104;28;20021;-49
2022/01/19 06:25:03;;;;;;;84.10;38.17;;;;;;;;;;5016432;28;20026;-49
2022/01/19 06:27:28;;;;;;;86.03;37.53;;;;;;;;;;5015898;28;22988;-49
2022/01/19 06:29:53;;;;;;;74.72;38.08;;;;;;;;;;5016122;28;20036;-50
2022/01/19 06:32:18;;;;;;;85.13;42.95;;;;;;;;;;5016810;28;20026;-49
2022/01/19 06:34:44;;;;;;;85.47;39.58;;;;;;;;;;5014180;28;20465;-51
2022/01/19 06:37:11;;;;;;;75.85;38.47;;;;;;;;;;5014955;28;20025;-49
2022/01/19 06:39:36;;;;;;;77.45;40.63;;;;;;;;;;5013958;28;20084;-49
2022/01/19 06:42:01;;;;;;;76.32;35.00;;;;;;;;;;5013060;28;20018;-49
2022/01/19 06:44:27;;;;;;;86.07;45.60;;;;;;;;;;5014184;28;20018;-52
2022/01/19 06:46:52;;;;;;;73.35;35.83;;;;;;;;;;5013895;28;20022;-49
2022/01/19 06:49:17;;;;;;;77.57;39.05;;;;;;;;;;5004487;28;20053;-48
2022/01/19 06:51:42;;;;;;;78.80;39.95;;;;;;;;;;5007311;28;20056;-49
2022/01/19 06:54:08;;;;;;;80.78;40.45;;;;;;;;;;5004268;28;20045;-48
2022/01/19 06:56:37;;;;;;;64.47;33.13;;;;;;;;;;5008623;28;20056;-49
2022/01/19 06:59:02;;;;;;;59.30;32.42;;;;;;;;;;5005493;28;20037;-48
2022/01/19 07:01:31;;;;;;;65.32;34.17;;;;;;;;;;5003892;28;20022;-50
2022/01/19 07:03:57;;;;;;;72.38;35.33;;;;;;;;;;4996679;28;20029;-49
2022/01/19 07:06:22;;;;;;;58.10;32.60;;;;;;;;;;5003809;28;20029;-48
2022/01/19 07:08:47;;;;;;;58.00;30.30;;;;;;;;;;4993323;28;20082;-49
2022/01/19 07:11:12;;;;;;;61.92;32.72;;;;;;;;;;4994949;28;20026;-50
2022/01/19 07:13:37;;;;;;;51.28;28.52;;;;;;;;;;4983798;28;20159;-49
2022/01/19 07:16:03;;;;;;;58.05;30.08;;;;;;;;;;4974965;28;20176;-49
2022/01/19 07:18:28;;;;;;;56.25;28.00;;;;;;;;;;4960165;28;20513;-52
2022/01/19 07:20:53;;;;;;;57.08;28.35;;;;;;;;;;4933520;28;20057;-50
2022/01/19 07:23:18;;;;;;;48.53;27.10;;;;;;;;;;4919518;28;20346;-48
2022/01/19 07:25:44;;;;;;;51.35;27.48;;;;;;;;;;4912967;28;20029;-51
2022/01/19 07:28:11;;;;;;;45.15;25.52;;;;;;;;;;4922580;28;20073;-49
2022/01/19 07:30:36;;;;;;;53.22;26.67;;;;;;;;;;4961304;28;20045;-49
2022/01/19 07:33:04;;;;;;;47.00;26.08;;;;;;;;;;4972202;28;20026;-49
2022/01/19 07:35:29;;;;;;;45.58;26.38;;;;;;;;;;4982762;28;20052;-51
2022/01/19 07:37:55;;;;;;;48.72;26.08;;;;;;;;;;4963633;28;20084;-48
2022/01/19 07:40:25;;;;;;;49.92;26.10;;;;;;;;;;4982956;28;20022;-48
2022/01/19 07:42:51;;;;;;;42.08;25.83;;;;;;;;;;4981458;28;20112;-49
2022/01/19 07:45:17;;;;;;;41.63;24.85;;;;;;;;;;4984207;28;20024;-50
2022/01/19 07:47:42;;;;;;;38.33;24.10;;;;;;;;;;4964464;28;20026;-49
2022/01/19 07:50:07;;;;;;;41.60;25.65;;;;;;;;;;4978762;28;20060;-51
2022/01/19 07:52:33;;;;;;;41.78;26.00;;;;;;;;;;4977722;28;20749;-48
2022/01/19 07:54:58;;;;;;;39.70;23.52;;;;;;;;;;4972938;28;20030;-49
2022/01/19 07:57:23;;;;;;;41.67;26.20;;;;;;;;;;4980591;28;20072;-48
2022/01/19 07:59:48;;;;;;;45.85;24.73;;;;;;;;;;4955182;28;20710;-48
2022/01/19 08:02:19;;;;;;;43.70;24.08;;;;;;;;;;4952887;28;20061;-48
2022/01/19 08:04:44;;;;;;;40.33;24.83;;;;;;;;;;4936242;28;20725;-49
2022/01/19 08:07:09;;;;;;;44.13;26.40;;;;;;;;;;4922079;28;20032;-50
2022/01/19 08:09:35;;;;;;;40.40;24.98;;;;;;;;;;4893084;28;20654;-50
2022/01/19 08:12:00;;;;;;;40.05;24.20;;;;;;;;;;4874418;28;20030;-48
2022/01/19 08:14:26;;;;;;;39.85;23.75;;;;;;;;;;4859432;28;20378;-48
2022/01/19 08:16:52;;;;;;;32.40;22.98;;;;;;;;;;4874146;28;20863;-50
2022/01/19 08:19:20;;;;;;;39.00;24.15;;;;;;;;;;4919299;28;20080;-50
2022/01/19 08:21:45;;;;;;;38.20;23.13;;;;;;;;;;4936704;28;20732;-48
2022/01/19 08:24:11;;;;;;;41.25;24.92;;;;;;;;;;4945117;28;20022;-47
2022/01/19 08:26:36;;;;;;;39.28;23.95;;;;;;;;;;4939918;28;20052;-48
2022/01/19 08:29:07;;;;;;;35.08;22.95;;;;;;;;;;4952968;28;20112;-50
2022/01/19 08:31:32;;;;;;;38.30;23.95;;;;;;;;;;4951885;28;20066;-48
2022/01/19 08:33:58;;;;;;;35.28;23.55;;;;;;;;;;4968902;28;20026;-48
2022/01/19 08:36:23;;;;;;;43.90;24.00;;;;;;;;;;4957523;28;20053;-50
2022/01/19 08:38:49;;;;;;;36.92;23.50;;;;;;;;;;4956663;28;20773;-49
2022/01/19 08:41:14;;;;;;;38.35;23.73;;;;;;;;;;4938354;28;20061;-48
2022/01/19 08:43:39;;;;;;;40.45;23.98;;;;;;;;;;4966173;28;20021;-48
2022/01/19 08:46:04;;;;;;;36.00;23.40;;;;;;;;;;4964025;28;20278;-48
2022/01/19 08:48:32;;;;;;;35.97;23.45;;;;;;;;;;4966599;28;20173;-48
2022/01/19 08:50:58;;;;;;;34.67;23.38;;;;;;;;;;4955528;28;20025;-47
2022/01/19 08:53:26;;;;;;;38.55;24.10;;;;;;;;;;4958061;28;20037;-48
2022/01/19 08:55:51;;;;;;;38.25;24.15;;;;;;;;;;4948990;28;20021;-49
2022/01/19 08:58:16;;;;;;;36.67;24.00;;;;;;;;;;4952097;28;20037;-49
2022/01/19 09:00:43;;;;;;;37.33;24.17;;;;;;;;;;4953918;28;20150;-50
2022/01/19 09:03:08;;;;;;;35.53;24.02;;;;;;;;;;4948023;28;20030;-51
2022/01/19 09:05:34;;;;;;;38.95;24.73;;;;;;;;;;4950224;28;20076;-50
2022/01/19 09:07:59;;;;;;;45.38;26.30;;;;;;;;;;4948764;28;21650;-50
2022/01/19 09:10:25;;;;;;;39.40;26.20;;;;;;;;;;4938515;28;21636;-50
2022/01/19 09:12:51;;;;;;;38.88;24.95;;;;;;;;;;4877360;28;20602;-49
2022/01/19 09:15:18;;;;;;;43.50;26.95;;;;;;;;;;4768748;28;20093;-47
2022/01/19 09:17:48;;;;;;;42.58;26.83;;;;;;;;;;4811444;28;21294;-49
2022/01/19 09:20:14;;;;;;;46.35;27.25;;;;;;;;;;4838069;28;20619;-48
2022/01/19 09:22:40;;;;;;;36.13;24.40;;;;;;;;;;4847691;28;20123;-52
2022/01/19 09:25:09;;;;;;;40.80;25.15;;;;;;;;;;4863499;28;20030;-48
2022/01/19 09:27:40;;;;;;;35.90;24.98;;;;;;;;;;4854013;28;22078;-49
2022/01/19 09:30:10;;;;;;;39.47;24.58;;;;;;;;;;4897095;28;20029;-49
2022/01/19 09:32:39;;;;;;;35.63;23.15;;;;;;;;;;4930278;28;20056;-50
2022/01/19 09:35:09;;;;;;;34.90;24.75;;;;;;;;;;4948973;28;20041;-52
2022/01/19 09:37:35;;;;;;;37.13;24.77;;;;;;;;;;4944913;28;21591;-49
2022/01/19 09:40:01;;;;;;;36.63;24.83;;;;;;;;;;4943838;28;20125;-50
2022/01/19 09:42:26;;;;;;;40.15;24.77;;;;;;;;;;4955693;28;20025;-48
2022/01/19 09:44:54;;;;;;;37.55;24.38;;;;;;;;;;4954554;28;20033;-51
2022/01/19 09:47:22;;;;;;;44.08;25.70;;;;;;;;;;4941563;28;20022;-51
2022/01/19 09:49:50;;;;;;;36.38;24.42;;;;;;;;;;4938205;28;20069;-48
2022/01/19 09:52:21;;;;;;;35.58;24.67;;;;;;;;;;4945543;28;20034;-49
2022/01/19 09:54:47;;;;;;;37.65;24.23;;;;;;;;;;4952541;28;20650;-49
2022/01/19 09:57:12;;;;;;;36.83;24.38;;;;;;;;;;4945909;28;20068;-48
2022/01/19 09:59:40;;;;;;;38.75;25.23;;;;;;;;;;4950763;28;20026;-48
2022/01/19 10:02:09;;;;;;;44.38;26.15;;;;;;;;;;4936699;28;20025;-49
2022/01/19 10:04:36;;;;;;;35.33;24.13;;;;;;;;;;4932315;28;20460;-48
2022/01/19 10:07:18;;;;;;;36.55;24.88;;;;;;;;;;4936044;28;20181;-49
2022/01/19 10:09:49;;;;;;;39.30;25.98;;;;;;;;;;4936107;28;20180;-48
2022/01/19 10:17:54;;;;;;;33.38;23.65;;;;;;;;;;4917391;28;20476;-49
2022/01/19 10:20:25;;;;;;;38.33;25.55;;;;;;;;;;4909188;28;23077;-51
2022/01/19 10:22:57;;;;;;;35.22;25.23;;;;;;;;;;4855082;28;20018;-48
2022/01/19 10:25:28;;;;;;;41.15;25.55;;;;;;;;;;4831900;28;22123;-50
2022/01/19 10:27:53;;;;;;;;;;;;;;;;;;4887086;28;20103;-49
2022/01/19 10:30:22;;;;;;;40.47;25.83;;;;;;;;;;4878259;28;19996;-51
2022/01/19 10:32:55;;;;;;;43.50;26.65;;;;;;;;;;4912924;28;21970;-50
2022/01/19 10:35:29;;;;;;;43.55;26.67;;;;;;;;;;4935053;28;21415;-48
2022/01/19 10:38:33;;;;;;;42.67;27.58;;;;;;;;;;4945399;28;20034;-49
2022/01/19 10:41:04;;;;;;;42.75;27.60;;;;;;;;;;4884679;28;20077;-48
2022/01/19 10:43:46;;;;;;;43.28;29.17;;;;;;;;;;4879389;28;21323;-51
2022/01/19 10:46:30;;;;;;;48.40;29.52;;;;;;;;;;4926394;28;20478;-50
2022/01/19 10:49:06;;;;;;;43.78;28.77;;;;;;;;;;4937234;28;20036;-49
2022/01/19 10:51:37;;;;;;;44.50;29.13;;;;;;;;;;4947523;28;21763;-51
2022/01/19 10:54:07;;;;;;;40.53;26.80;;;;;;;;;;4947463;28;20840;-50
2022/01/19 10:56:32;;;;;;;39.38;24.92;;;;;;;;;;4940758;28;20240;-49
2022/01/19 10:58:59;;;;;;;40.85;25.40;;;;;;;;;;4954116;28;21331;-48
2022/01/19 11:01:34;;;;;;;39.05;26.52;;;;;;;;;;4942330;28;20020;-51
2022/01/19 11:04:17;;;;;;;37.75;24.98;;;;;;;;;;4939922;28;20022;-49
2022/01/19 11:06:42;;;;;;;40.15;25.85;;;;;;;;;;4936734;28;20107;-49
2022/01/19 11:09:14;;;;;;;35.63;25.13;;;;;;;;;;4935404;23;20782;-49
2022/01/19 11:11:40;;;;;;;38.67;25.35;;;;;;;;;;4917583;28;20792;-50
2022/01/19 11:14:06;;;;;;;42.65;27.50;;;;;;;;;;4900182;28;20031;-48
2022/01/19 11:16:33;;;;;;;42.22;26.45;;;;;;;;;;4880641;28;20533;-48
2022/01/19 11:18:58;;;;;;;41.40;26.15;;;;;;;;;;4875773;28;20027;-51
2022/01/19 11:21:29;;;;;;;40.10;26.90;;;;;;;;;;4882736;28;20388;-50
2022/01/19 11:23:54;;;;;;;38.67;25.67;;;;;;;;;;4911948;28;20033;-50
2022/01/19 11:26:31;;;;;;;40.00;25.65;;;;;;;;;;4892322;28;20152;-52
2022/01/19 11:29:11;;;;;;;40.47;25.42;;;;;;;;;;4903180;28;20116;-48
2022/01/19 11:31:40;;;;;;;43.30;25.88;;;;;;;;;;4930116;28;22085;-47
2022/01/19 11:34:08;;;;;;;50.45;25.77;;;;;;;;;;4922894;28;20030;-49
2022/01/19 11:36:35;;;;;;;35.33;23.75;;;;;;;;;;4917849;28;20073;-48
2022/01/19 11:39:20;;;;;;;37.40;25.00;;;;;;;;;;4928055;28;20030;-49
2022/01/19 11:41:54;;;;;;;36.85;24.52;;;;;;;;;;4945739;28;20056;-50
2022/01/19 11:44:28;;;;;;;38.90;25.13;;;;;;;;;;4940472;28;20027;-48
2022/01/19 11:46:55;;;;;;;35.03;24.67;;;;;;;;;;4950313;28;20264;-47
2022/01/19 11:49:39;;;;;;;37.88;24.67;;;;;;;;;;4955721;28;20057;-47
2022/01/19 11:52:07;;;;;;;39.90;26.00;;;;;;;;;;4942356;28;22730;-47
2022/01/19 11:54:35;;;;;;;33.45;23.38;;;;;;;;;;4948909;28;20030;-49
2022/01/19 11:57:04;;;;;;;41.42;23.05;;;;;;;;;;4943932;28;20456;-46
2022/01/19 11:59:52;;;;;;;34.00;23.77;;;;;;;;;;4945501;28;20034;-47
2022/01/19 12:02:20;;;;;;;35.05;22.67;;;;;;;;;;4922775;28;20798;-46
2022/01/19 12:04:45;;;;;;;35.40;23.23;;;;;;;;;;4878091;28;20105;-47
2022/01/19 12:07:29;;;;;;;34.55;24.23;;;;;;;;;;4912790;28;20442;-48
2022/01/19 12:09:56;;;;;;;35.70;22.58;;;;;;;;;;4912788;28;20778;-50
2022/01/19 12:12:23;;;;;;;36.20;22.83;;;;;;;;;;4927142;28;20014;-50
2022/01/19 12:14:51;;;;;;;35.85;23.20;;;;;;;;;;4921443;28;20065;-49
2022/01/19 12:17:27;;;;;;;37.72;22.85;;;;;;;;;;4914224;28;20022;-49
2022/01/19 12:19:52;;;;;;;34.35;24.05;;;;;;;;;;4907044;28;20035;-51
2022/01/19 12:22:22;;;;;;;32.25;22.42;;;;;;;;;;4893834;28;20042;-51
2022/01/19 12:25:00;;;;;;;42.60;24.13;;;;;;;;;;4913630;28;20026;-48
2022/01/19 12:27:53;;;;;;;34.65;23.50;;;;;;;;;;4920240;28;20045;-50
2022/01/19 12:30:22;;;;;;;37.08;23.88;;;;;;;;;;4938486;28;20046;-49
2022/01/19 12:32:48;;;;;;;38.25;23.70;;;;;;;;;;4954296;28;20121;-49
2022/01/19 12:35:16;;;;;;;38.08;22.92;;;;;;;;;;4953627;28;21766;-49
2022/01/19 12:37:42;;;;;;;36.58;22.42;;;;;;;;;;4945912;28;21892;-51
2022/01/19 12:40:16;;;;;;;35.15;22.83;;;;;;;;;;4951357;28;20041;-48
2022/01/19 12:42:42;;;;;;;39.58;23.90;;;;;;;;;;4953081;28;20555;-48
2022/01/19 12:45:18;;;;;;;44.17;24.63;;;;;;;;;;4957000;28;20117;-48
2022/01/19 12:47:47;;;;;;;41.28;24.85;;;;;;;;;;4958351;28;20540;-49
2022/01/19 12:50:13;;;;;;;32.10;22.40;;;;;;;;;;4961131;28;20585;-50
2022/01/19 12:52:56;;;;;;;38.60;23.05;;;;;;;;;;4962888;28;20041;-48
2022/01/19 12:55:23;;;;;;;37.15;23.25;;;;;;;;;;4963347;28;20034;-51
2022/01/19 12:57:49;;;;;;;37.60;23.83;;;;;;;;;;4963840;28;21809;-48
2022/01/19 13:00:15;;;;;;;39.22;23.05;;;;;;;;;;4964108;28;20037;-50
2022/01/19 13:02:46;;;;;;;42.83;24.90;;;;;;;;;;4958421;28;20546;-50
2022/01/19 13:05:14;;;;;;;37.58;24.02;;;;;;;;;;4958984;28;20030;-51
2022/01/19 13:07:40;;;;;;;39.03;25.33;;;;;;;;;;4963483;28;20133;-52
2022/01/19 13:10:40;;;;;;;40.22;23.67;;;;;;;;;;4965043;28;22050;-49
2022/01/19 13:13:26;;;;;;;37.33;24.75;;;;;;;;;;4957207;28;21711;-49
2022/01/19 13:15:57;;;;;;;38.22;23.85;;;;;;;;;;4958173;28;20042;-49
2022/01/19 13:18:31;;;;;;;38.85;24.67;;;;;;;;;;4966465;28;20030;-49
2022/01/19 13:20:57;;;;;;;37.38;24.27;;;;;;;;;;4965014;28;20490;-48
2022/01/19 13:23:23;;;;;;;38.40;26.27;;;;;;;;;;4953001;28;20030;-53
2022/01/19 13:25:55;;;;;;;37.88;24.95;;;;;;;;;;4921075;28;20060;-47
2022/01/19 13:28:24;;;;;;;41.55;23.80;;;;;;;;;;4911672;28;20116;-47
2022/01/19 13:31:10;;;;;;;39.53;24.70;;;;;;;;;;4930340;28;20038;-49
2022/01/19 13:33:35;;;;;;;41.92;25.13;;;;;;;;;;4914820;28;20038;-49
2022/01/19 13:36:00;;;;;;;39.95;23.15;;;;;;;;;;4911785;28;20120;-52
2022/01/19 13:38:26;;;;;;;42.55;23.98;;;;;;;;;;4934580;28;20050;-49
2022/01/19 13:40:51;;;;;;;44.17;24.45;;;;;;;;;;4938207;28;20221;-49
2022/01/19 13:43:19;;;;;;;37.58;23.33;;;;;;;;;;4949222;28;20035;-50
2022/01/19 13:50:43;;;;;;;38.70;23.00;;;;;;;;;;4943798;28;20039;-51
2022/01/19 13:53:08;;;;;;;46.47;24.90;;;;;;;;;;4953718;28;20042;-49
2022/01/19 13:55:34;;;;;;;40.83;24.38;;;;;;;;;;4954690;28;20041;-49
2022/01/19 13:58:13;;;;;;;40.83;23.05;;;;;;;;;;4955431;28;20011;-49
2022/01/19 14:00:52;;;;;;;36.05;22.30;;;;;;;;;;4956628;28;20033;-50
2022/01/19 14:03:18;;;;;;;40.38;22.13;;;;;;;;;;4951220;28;20077;-49
2022/01/19 14:05:48;;;;;;;41.70;25.10;;;;;;;;;;4978114;28;20049;-49
2022/01/19 14:08:13;;;;;;;38.40;22.90;;;;;;;;;;4977335;28;20441;-51
2022/01/19 14:10:47;;;;;;;43.03;24.67;;;;;;;;;;4986887;28;20030;-47
2022/01/19 14:13:31;;;;;;;37.83;23.50;;;;;;;;;;4985636;28;20042;-47
2022/01/19 14:15:58;;;;;;;41.70;23.85;;;;;;;;;;4989739;28;20050;-51
2022/01/19 14:18:24;;;;;;;36.53;22.83;;;;;;;;;;4990487;28;20034;-49
2022/01/19 14:21:08;;;;;;;43.08;24.98;;;;;;;;;;4985355;28;20026;-49
2022/01/19 14:23:34;;;;;;;39.25;23.38;;;;;;;;;;4982844;28;20028;-51
2022/01/19 14:26:09;;;;;;;37.97;23.58;;;;;;;;;;4988291;28;20026;-48
2022/01/19 14:28:36;;;;;;;38.75;23.63;;;;;;;;;;4992430;28;20030;-47
2022/01/19 14:31:02;;;;;;;42.58;24.08;;;;;;;;;;4992542;28;20014;-49
2022/01/19 14:33:28;;;;;;;44.22;25.63;;;;;;;;;;4990026;28;20022;-49
2022/01/19 14:35:57;;;;;;;40.35;24.40;;;;;;;;;;4993682;28;20412;-50
2022/01/19 14:38:22;;;;;;;44.05;25.42;;;;;;;;;;4990850;28;20041;-49
2022/01/19 14:40:50;;;;;;;39.40;24.70;;;;;;;;;;4989588;28;20109;-49
2022/01/19 14:43:16;;;;;;;52.30;25.48;;;;;;;;;;4988789;28;20015;-50
2022/01/19 14:45:51;;;;;;;50.90;27.42;;;;;;;;;;4992112;28;20023;-49
2022/01/19 14:48:18;;;;;;;48.05;27.83;;;;;;;;;;4990446;28;20011;-50
2022/01/19 14:50:44;;;;;;;51.80;29.83;;;;;;;;;;4991117;28;20030;-50
2022/01/19 14:53:12;;;;;;;52.13;29.40;;;;;;;;;;4991797;28;20034;-53
2022/01/19 14:55:40;;;;;;;61.83;30.98;;;;;;;;;;4982686;28;20034;-51
2022/01/19 14:58:06;;;;;;;54.47;29.70;;;;;;;;;;4992379;28;20482;-50
2022/01/19 15:00:38;;;;;;;65.80;32.25;;;;;;;;;;4990406;28;20485;-52
2022/01/19 15:03:04;;;;;;;59.90;31.67;;;;;;;;;;4993606;28;20099;-50
2022/01/19 15:05:33;;;;;;;63.53;33.85;;;;;;;;;;4996023;28;20101;-50
2022/01/19 15:07:59;;;;;;;62.47;33.22;;;;;;;;;;4994470;28;20112;-50
2022/01/19 15:10:25;;;;;;;67.95;32.85;;;;;;;;;;4991179;28;20073;-52
2022/01/19 15:12:53;;;;;;;65.22;34.50;;;;;;;;;;4997622;28;20486;-54
2022/01/19 15:15:29;;;;;;;72.45;36.05;;;;;;;;;;4992836;28;20101;-51
2022/01/19 15:17:56;;;;;;;59.85;34.58;;;;;;;;;;4994053;28;20062;-51
2022/01/19 15:20:22;;;;;;;71.00;36.75;;;;;;;;;;4993914;28;20132;-52
2022/01/19 15:22:48;;;;;;;66.72;35.95;;;;;;;;;;5004699;28;20030;-51
2022/01/19 15:25:15;;;;;;;66.93;36.38;;;;;;;;;;5002266;28;20496;-51
2022/01/19 15:27:46;;;;;;;74.90;36.97;;;;;;;;;;4998506;28;20061;-51
2022/01/19 15:30:14;;;;;;;72.10;37.70;;;;;;;;;;5000375;28;20014;-51
2022/01/19 15:32:43;;;;;;;73.25;37.80;;;;;;;;;;4990028;28;20107;-50
2022/01/19 15:35:09;;;;;;;76.57;39.97;;;;;;;;;;4995427;28;20033;-51
2022/01/19 15:37:35;;;;;;;82.88;40.90;;;;;;;;;;4992599;28;20030;-51
2022/01/19 15:40:00;;;;;;;75.63;38.58;;;;;;;;;;4993238;28;20141;-50
2022/01/19 15:42:29;;;;;;;77.35;38.30;;;;;;;;;;4996754;28;20366;-51
2022/01/19 15:44:54;;;;;;;73.30;38.78;;;;;;;;;;4992974;28;20478;-51
2022/01/19 15:47:19;;;;;;;72.85;37.78;;;;;;;;;;4988478;28;20038;-50
2022/01/19 15:49:47;;;;;;;65.00;35.80;;;;;;;;;;4992231;28;20030;-50
2022/01/19 15:52:13;;;;;;;76.20;39.90;;;;;;;;;;4988047;28;20030;-53
2022/01/19 15:54:38;;;;;;;75.63;41.47;;;;;;;;;;4990539;28;20034;-50